sensor_id;sensor_type;location;lat;lon;timestamp;temperature;humidity
52621;DHT22;38515;53.160;6.990;2023-07-22T00:02:04;12.30;99.90
52621;DHT22;38515;53.160;6.990;2023-07-22T00:04:30;12.30;99.90
52621;DHT22;38515;53.160;6.990;2023-07-22T00:06:56;12.20;99.90
52621;DHT22;38515;53.160;6.990;2023-07-22T00:09:22;12.20;99.90
52621;DHT22;38515;53.160;6.990;2023-07-22T00:11:49;12.20;99.90
52621;DHT22;38515;53.160;6.990;2023-07-22T00:14:15;12.20;99.90
52621;DHT22;38515;53.160;6.990;2023-07-22T00:16:41;12.20;99.90
52621;DHT22;38515;53.160;6.990;2023-07-22T00:19:07;12.10;99.90
52621;DHT22;38515;53.160;6.990;2023-07-22T00:21:33;12.10;99.90
52621;DHT22;38515;53.160;6.990;2023-07-22T00:24:02;12.00;99.90
52621;DHT22;38515;53.160;6.990;2023-07-22T00:26:27;12.10;99.90
52621;DHT22;38515;53.160;6.990;2023-07-22T00:28:53;12.00;99.90
52621;DHT22;38515;53.160;6.990;2023-07-22T00:31:19;12.00;99.90
52621;DHT22;38515;53.160;6.990;2023-07-22T00:33:45;12.00;99.90
52621;DHT22;38515;53.160;6.990;2023-07-22T00:36:11;12.00;99.90
52621;DHT22;38515;53.160;6.990;2023-07-22T00:38:37;11.90;99.90
52621;DHT22;38515;53.160;6.990;2023-07-22T00:41:02;11.90;99.90
52621;DHT22;38515;53.160;6.990;2023-07-22T00:43:31;11.90;99.90
52621;DHT22;38515;53.160;6.990;2023-07-22T00:45:57;11.80;99.90
52621;DHT22;38515;53.160;6.990;2023-07-22T00:48:23;11.80;99.90
52621;DHT22;38515;53.160;6.990;2023-07-22T00:50:49;11.80;99.90
52621;DHT22;38515;53.160;6.990;2023-07-22T00:53:15;11.70;99.90
52621;DHT22;38515;53.160;6.990;2023-07-22T00:55:41;11.70;99.90
52621;DHT22;38515;53.160;6.990;2023-07-22T00:58:08;11.70;99.90
52621;DHT22;38515;53.160;6.990;2023-07-22T01:00:33;11.60;99.90
52621;DHT22;38515;53.160;6.990;2023-07-22T01:03:00;11.60;99.90
52621;DHT22;38515;53.160;6.990;2023-07-22T01:05:26;11.60;99.90
52621;DHT22;38515;53.160;6.990;2023-07-22T01:07:53;11.60;99.90
52621;DHT22;38515;53.160;6.990;2023-07-22T01:10:22;11.60;99.90
52621;DHT22;38515;53.160;6.990;2023-07-22T01:12:47;11.60;99.90
52621;DHT22;38515;53.160;6.990;2023-07-22T01:15:14;11.60;99.90
52621;DHT22;38515;53.160;6.990;2023-07-22T01:17:39;11.60;99.90
52621;DHT22;38515;53.160;6.990;2023-07-22T01:20:06;11.60;99.90
52621;DHT22;38515;53.160;6.990;2023-07-22T01:22:33;11.50;99.90
52621;DHT22;38515;53.160;6.990;2023-07-22T01:25:00;11.50;99.90
52621;DHT22;38515;53.160;6.990;2023-07-22T01:27:26;11.50;99.90
52621;DHT22;38515;53.160;6.990;2023-07-22T01:29:52;11.40;99.90
52621;DHT22;38515;53.160;6.990;2023-07-22T01:32:18;11.40;99.90
52621;DHT22;38515;53.160;6.990;2023-07-22T01:34:46;11.40;99.90
52621;DHT22;38515;53.160;6.990;2023-07-22T01:37:11;11.40;99.90
52621;DHT22;38515;53.160;6.990;2023-07-22T01:39:37;11.30;99.90
52621;DHT22;38515;53.160;6.990;2023-07-22T01:42:03;11.30;99.90
52621;DHT22;38515;53.160;6.990;2023-07-22T01:44:29;11.30;99.90
52621;DHT22;38515;53.160;6.990;2023-07-22T01:46:55;11.30;99.90
52621;DHT22;38515;53.160;6.990;2023-07-22T01:49:22;11.30;99.90
52621;DHT22;38515;53.160;6.990;2023-07-22T01:51:50;11.30;99.90
52621;DHT22;38515;53.160;6.990;2023-07-22T01:54:16;11.30;99.90
52621;DHT22;38515;53.160;6.990;2023-07-22T01:56:42;11.20;99.90
52621;DHT22;38515;53.160;6.990;2023-07-22T01:59:08;11.20;99.90
52621;DHT22;38515;53.160;6.990;2023-07-22T02:01:35;11.20;99.90
52621;DHT22;38515;53.160;6.990;2023-07-22T02:04:01;11.20;99.90
52621;DHT22;38515;53.160;6.990;2023-07-22T02:06:27;11.10;99.90
52621;DHT22;38515;53.160;6.990;2023-07-22T02:08:54;11.20;99.90
52621;DHT22;38515;53.160;6.990;2023-07-22T02:11:21;11.10;99.90
52621;DHT22;38515;53.160;6.990;2023-07-22T02:13:47;11.10;99.90
52621;DHT22;38515;53.160;6.990;2023-07-22T02:16:13;11.10;99.90
52621;DHT22;38515;53.160;6.990;2023-07-22T02:18:39;11.00;99.90
52621;DHT22;38515;53.160;6.990;2023-07-22T02:21:04;11.00;99.90
52621;DHT22;38515;53.160;6.990;2023-07-22T02:23:30;11.00;99.90
52621;DHT22;38515;53.160;6.990;2023-07-22T02:25:56;11.00;99.90
52621;DHT22;38515;53.160;6.990;2023-07-22T02:28:23;11.00;99.90
52621;DHT22;38515;53.160;6.990;2023-07-22T02:30:50;10.90;99.90
52621;DHT22;38515;53.160;6.990;2023-07-22T02:33:18;10.90;99.90
52621;DHT22;38515;53.160;6.990;2023-07-22T02:35:44;10.90;99.90
52621;DHT22;38515;53.160;6.990;2023-07-22T02:38:10;10.90;99.90
52621;DHT22;38515;53.160;6.990;2023-07-22T02:40:37;10.90;99.90
52621;DHT22;38515;53.160;6.990;2023-07-22T02:43:03;10.90;99.90
52621;DHT22;38515;53.160;6.990;2023-07-22T02:45:29;10.80;99.90
52621;DHT22;38515;53.160;6.990;2023-07-22T02:47:55;10.80;99.90
52621;DHT22;38515;53.160;6.990;2023-07-22T02:50:21;10.70;99.90
52621;DHT22;38515;53.160;6.990;2023-07-22T02:52:47;10.70;99.90
52621;DHT22;38515;53.160;6.990;2023-07-22T02:55:17;10.70;99.90
52621;DHT22;38515;53.160;6.990;2023-07-22T02:57:46;10.70;99.90
52621;DHT22;38515;53.160;6.990;2023-07-22T03:00:17;10.60;99.90
52621;DHT22;38515;53.160;6.990;2023-07-22T03:02:54;10.60;99.90
52621;DHT22;38515;53.160;6.990;2023-07-22T03:05:21;10.50;99.90
52621;DHT22;38515;53.160;6.990;2023-07-22T03:07:47;10.50;99.90
52621;DHT22;38515;53.160;6.990;2023-07-22T03:10:13;10.50;99.90
52621;DHT22;38515;53.160;6.990;2023-07-22T03:12:39;10.40;99.90
52621;DHT22;38515;53.160;6.990;2023-07-22T03:15:05;10.40;99.90
52621;DHT22;38515;53.160;6.990;2023-07-22T03:17:34;10.30;99.90
52621;DHT22;38515;53.160;6.990;2023-07-22T03:20:02;10.30;99.90
52621;DHT22;38515;53.160;6.990;2023-07-22T03:22:30;10.30;99.90
52621;DHT22;38515;53.160;6.990;2023-07-22T03:24:56;10.30;99.90
52621;DHT22;38515;53.160;6.990;2023-07-22T03:27:22;10.30;99.90
52621;DHT22;38515;53.160;6.990;2023-07-22T03:29:48;10.30;99.90
52621;DHT22;38515;53.160;6.990;2023-07-22T03:32:14;10.20;99.90
52621;DHT22;38515;53.160;6.990;2023-07-22T03:34:40;10.20;99.90
52621;DHT22;38515;53.160;6.990;2023-07-22T03:37:07;10.20;99.90
52621;DHT22;38515;53.160;6.990;2023-07-22T03:39:33;10.20;99.90
52621;DHT22;38515;53.160;6.990;2023-07-22T03:41:58;10.20;99.90
52621;DHT22;38515;53.160;6.990;2023-07-22T03:44:24;10.10;99.90
52621;DHT22;38515;53.160;6.990;2023-07-22T03:46:51;10.10;99.90
52621;DHT22;38515;53.160;6.990;2023-07-22T03:49:17;10.10;99.90
52621;DHT22;38515;53.160;6.990;2023-07-22T03:51:43;10.10;99.90
52621;DHT22;38515;53.160;6.990;2023-07-22T03:54:09;10.10;99.90
52621;DHT22;38515;53.160;6.990;2023-07-22T03:56:35;10.10;99.90
52621;DHT22;38515;53.160;6.990;2023-07-22T03:59:01;10.10;99.90
52621;DHT22;38515;53.160;6.990;2023-07-22T04:01:26;10.10;99.90
52621;DHT22;38515;53.160;6.990;2023-07-22T04:03:52;10.20;99.90
52621;DHT22;38515;53.160;6.990;2023-07-22T04:06:18;10.20;99.90
52621;DHT22;38515;53.160;6.990;2023-07-22T04:08:44;10.20;99.90
52621;DHT22;38515;53.160;6.990;2023-07-22T04:11:10;10.20;99.90
52621;DHT22;38515;53.160;6.990;2023-07-22T04:13:36;10.30;99.90
52621;DHT22;38515;53.160;6.990;2023-07-22T04:16:02;10.30;99.90
52621;DHT22;38515;53.160;6.990;2023-07-22T04:18:28;10.30;99.90
52621;DHT22;38515;53.160;6.990;2023-07-22T04:21:00;10.40;99.90
52621;DHT22;38515;53.160;6.990;2023-07-22T04:23:26;10.40;99.90
52621;DHT22;38515;53.160;6.990;2023-07-22T04:25:53;10.40;99.90
52621;DHT22;38515;53.160;6.990;2023-07-22T04:28:19;10.60;99.90
52621;DHT22;38515;53.160;6.990;2023-07-22T04:30:55;10.60;99.90
52621;DHT22;38515;53.160;6.990;2023-07-22T04:33:21;10.70;99.90
52621;DHT22;38515;53.160;6.990;2023-07-22T04:35:47;10.80;99.90
52621;DHT22;38515;53.160;6.990;2023-07-22T04:38:12;10.90;99.90
52621;DHT22;38515;53.160;6.990;2023-07-22T04:40:43;11.00;99.90
52621;DHT22;38515;53.160;6.990;2023-07-22T04:43:09;11.10;99.90
52621;DHT22;38515;53.160;6.990;2023-07-22T04:45:35;11.20;99.90
52621;DHT22;38515;53.160;6.990;2023-07-22T04:48:01;11.30;99.90
52621;DHT22;38515;53.160;6.990;2023-07-22T04:50:27;11.40;99.90
52621;DHT22;38515;53.160;6.990;2023-07-22T04:52:54;11.50;99.90
52621;DHT22;38515;53.160;6.990;2023-07-22T04:55:20;11.50;99.90
52621;DHT22;38515;53.160;6.990;2023-07-22T04:57:46;11.60;99.90
52621;DHT22;38515;53.160;6.990;2023-07-22T05:00:13;11.70;99.90
52621;DHT22;38515;53.160;6.990;2023-07-22T05:02:40;11.80;99.90
52621;DHT22;38515;53.160;6.990;2023-07-22T05:05:07;11.90;99.90
52621;DHT22;38515;53.160;6.990;2023-07-22T05:07:33;11.90;99.90
52621;DHT22;38515;53.160;6.990;2023-07-22T05:09:58;12.00;99.90
52621;DHT22;38515;53.160;6.990;2023-07-22T05:12:24;12.00;99.90
52621;DHT22;38515;53.160;6.990;2023-07-22T05:14:50;12.10;99.90
52621;DHT22;38515;53.160;6.990;2023-07-22T05:17:16;12.20;99.90
52621;DHT22;38515;53.160;6.990;2023-07-22T05:19:42;12.20;99.90
52621;DHT22;38515;53.160;6.990;2023-07-22T05:22:08;12.30;99.90
52621;DHT22;38515;53.160;6.990;2023-07-22T05:24:34;12.40;99.90
52621;DHT22;38515;53.160;6.990;2023-07-22T05:27:00;12.40;99.90
52621;DHT22;38515;53.160;6.990;2023-07-22T05:29:25;12.50;99.90
52621;DHT22;38515;53.160;6.990;2023-07-22T05:31:51;12.50;99.90
52621;DHT22;38515;53.160;6.990;2023-07-22T05:34:17;12.50;99.90
52621;DHT22;38515;53.160;6.990;2023-07-22T05:36:43;12.70;99.90
52621;DHT22;38515;53.160;6.990;2023-07-22T05:39:09;12.70;99.90
52621;DHT22;38515;53.160;6.990;2023-07-22T05:41:35;12.70;99.90
52621;DHT22;38515;53.160;6.990;2023-07-22T05:44:01;12.80;99.90
52621;DHT22;38515;53.160;6.990;2023-07-22T05:46:27;12.90;99.90
52621;DHT22;38515;53.160;6.990;2023-07-22T05:48:53;13.00;99.90
52621;DHT22;38515;53.160;6.990;2023-07-22T05:51:19;12.90;99.90
52621;DHT22;38515;53.160;6.990;2023-07-22T05:53:45;13.00;99.90
52621;DHT22;38515;53.160;6.990;2023-07-22T05:56:10;13.10;99.90
52621;DHT22;38515;53.160;6.990;2023-07-22T05:58:36;13.20;99.90
52621;DHT22;38515;53.160;6.990;2023-07-22T06:01:02;13.30;99.90
52621;DHT22;38515;53.160;6.990;2023-07-22T06:03:28;13.40;99.90
52621;DHT22;38515;53.160;6.990;2023-07-22T06:05:54;13.50;99.90
52621;DHT22;38515;53.160;6.990;2023-07-22T06:08:20;13.60;99.90
52621;DHT22;38515;53.160;6.990;2023-07-22T06:10:46;13.70;99.90
52621;DHT22;38515;53.160;6.990;2023-07-22T06:13:12;13.90;99.90
52621;DHT22;38515;53.160;6.990;2023-07-22T06:15:38;14.30;99.90
52621;DHT22;38515;53.160;6.990;2023-07-22T06:18:04;14.90;99.90
52621;DHT22;38515;53.160;6.990;2023-07-22T06:20:34;15.30;99.90
52621;DHT22;38515;53.160;6.990;2023-07-22T06:23:04;15.50;99.90
52621;DHT22;38515;53.160;6.990;2023-07-22T06:25:30;15.50;99.90
52621;DHT22;38515;53.160;6.990;2023-07-22T06:27:56;15.70;99.90
52621;DHT22;38515;53.160;6.990;2023-07-22T06:30:22;15.90;99.90
52621;DHT22;38515;53.160;6.990;2023-07-22T06:32:47;16.20;99.90
52621;DHT22;38515;53.160;6.990;2023-07-22T06:35:13;16.20;99.90
52621;DHT22;38515;53.160;6.990;2023-07-22T06:37:39;16.40;99.90
52621;DHT22;38515;53.160;6.990;2023-07-22T06:40:06;16.60;99.90
52621;DHT22;38515;53.160;6.990;2023-07-22T06:42:33;16.80;99.90
52621;DHT22;38515;53.160;6.990;2023-07-22T06:44:59;17.00;99.90
52621;DHT22;38515;53.160;6.990;2023-07-22T06:47:25;17.20;99.90
52621;DHT22;38515;53.160;6.990;2023-07-22T06:49:51;17.30;99.90
52621;DHT22;38515;53.160;6.990;2023-07-22T06:52:17;17.60;99.90
52621;DHT22;38515;53.160;6.990;2023-07-22T06:54:43;17.80;99.90
52621;DHT22;38515;53.160;6.990;2023-07-22T06:57:09;17.80;99.90
52621;DHT22;38515;53.160;6.990;2023-07-22T06:59:35;17.80;99.90
52621;DHT22;38515;53.160;6.990;2023-07-22T07:02:01;17.60;99.90
52621;DHT22;38515;53.160;6.990;2023-07-22T07:04:27;17.60;99.90
52621;DHT22;38515;53.160;6.990;2023-07-22T07:06:53;17.60;99.90
52621;DHT22;38515;53.160;6.990;2023-07-22T07:09:19;17.70;99.90
52621;DHT22;38515;53.160;6.990;2023-07-22T07:11:45;17.80;99.90
52621;DHT22;38515;53.160;6.990;2023-07-22T07:14:11;17.90;99.90
52621;DHT22;38515;53.160;6.990;2023-07-22T07:16:37;18.00;99.90
52621;DHT22;38515;53.160;6.990;2023-07-22T07:19:03;18.00;99.90
52621;DHT22;38515;53.160;6.990;2023-07-22T07:21:29;18.00;99.90
52621;DHT22;38515;53.160;6.990;2023-07-22T07:23:55;18.00;99.90
52621;DHT22;38515;53.160;6.990;2023-07-22T07:26:21;18.00;99.90
52621;DHT22;38515;53.160;6.990;2023-07-22T07:28:48;18.00;99.90
52621;DHT22;38515;53.160;6.990;2023-07-22T07:31:15;18.00;99.90
52621;DHT22;38515;53.160;6.990;2023-07-22T07:33:41;18.00;99.90
52621;DHT22;38515;53.160;6.990;2023-07-22T07:36:07;18.00;99.90
52621;DHT22;38515;53.160;6.990;2023-07-22T07:38:33;18.00;99.90
52621;DHT22;38515;53.160;6.990;2023-07-22T07:41:01;17.90;99.90
52621;DHT22;38515;53.160;6.990;2023-07-22T07:43:27;17.80;99.90
52621;DHT22;38515;53.160;6.990;2023-07-22T07:48:44;17.80;99.90
52621;DHT22;38515;53.160;6.990;2023-07-22T07:51:11;17.60;99.90
52621;DHT22;38515;53.160;6.990;2023-07-22T07:53:37;17.50;99.90
52621;DHT22;38515;53.160;6.990;2023-07-22T07:56:03;17.50;99.90
52621;DHT22;38515;53.160;6.990;2023-07-22T07:58:29;17.50;99.90
52621;DHT22;38515;53.160;6.990;2023-07-22T08:00:55;17.50;99.90
52621;DHT22;38515;53.160;6.990;2023-07-22T08:03:21;17.50;99.90
52621;DHT22;38515;53.160;6.990;2023-07-22T08:05:47;17.50;99.90
52621;DHT22;38515;53.160;6.990;2023-07-22T08:08:13;17.50;99.90
52621;DHT22;38515;53.160;6.990;2023-07-22T08:10:38;17.60;99.90
52621;DHT22;38515;53.160;6.990;2023-07-22T08:13:04;17.70;99.90
52621;DHT22;38515;53.160;6.990;2023-07-22T08:15:30;17.90;99.90
52621;DHT22;38515;53.160;6.990;2023-07-22T08:17:56;18.10;99.90
52621;DHT22;38515;53.160;6.990;2023-07-22T08:20:22;18.30;99.90
52621;DHT22;38515;53.160;6.990;2023-07-22T08:22:48;18.40;99.90
52621;DHT22;38515;53.160;6.990;2023-07-22T08:25:14;18.60;99.90
52621;DHT22;38515;53.160;6.990;2023-07-22T08:27:40;18.80;99.90
52621;DHT22;38515;53.160;6.990;2023-07-22T08:30:06;19.00;99.90
52621;DHT22;38515;53.160;6.990;2023-07-22T08:32:32;19.10;99.90
52621;DHT22;38515;53.160;6.990;2023-07-22T08:34:58;19.20;99.90
52621;DHT22;38515;53.160;6.990;2023-07-22T08:37:24;19.30;99.90
52621;DHT22;38515;53.160;6.990;2023-07-22T08:39:50;19.30;99.90
52621;DHT22;38515;53.160;6.990;2023-07-22T08:42:18;19.40;99.90
52621;DHT22;38515;53.160;6.990;2023-07-22T08:44:48;19.40;99.90
52621;DHT22;38515;53.160;6.990;2023-07-22T08:47:16;19.20;99.90
52621;DHT22;38515;53.160;6.990;2023-07-22T08:49:49;19.10;99.90
52621;DHT22;38515;53.160;6.990;2023-07-22T08:52:17;19.10;99.90
52621;DHT22;38515;53.160;6.990;2023-07-22T08:54:43;19.00;99.90
52621;DHT22;38515;53.160;6.990;2023-07-22T08:57:11;19.00;99.90
52621;DHT22;38515;53.160;6.990;2023-07-22T08:59:38;19.00;99.90
52621;DHT22;38515;53.160;6.990;2023-07-22T09:02:05;19.10;99.90
52621;DHT22;38515;53.160;6.990;2023-07-22T09:04:33;19.10;99.90
52621;DHT22;38515;53.160;6.990;2023-07-22T09:06:59;19.20;99.90
52621;DHT22;38515;53.160;6.990;2023-07-22T09:09:26;19.40;99.90
52621;DHT22;38515;53.160;6.990;2023-07-22T09:11:52;19.50;99.90
52621;DHT22;38515;53.160;6.990;2023-07-22T09:14:19;19.60;99.90
52621;DHT22;38515;53.160;6.990;2023-07-22T09:16:45;19.70;99.90
52621;DHT22;38515;53.160;6.990;2023-07-22T09:19:12;19.80;99.90
52621;DHT22;38515;53.160;6.990;2023-07-22T09:21:38;19.70;99.90
52621;DHT22;38515;53.160;6.990;2023-07-22T09:24:26;19.50;99.90
52621;DHT22;38515;53.160;6.990;2023-07-22T09:26:53;19.50;99.90
52621;DHT22;38515;53.160;6.990;2023-07-22T09:29:37;19.40;99.90
52621;DHT22;38515;53.160;6.990;2023-07-22T09:32:05;19.50;99.90
52621;DHT22;38515;53.160;6.990;2023-07-22T09:34:31;19.50;99.90
52621;DHT22;38515;53.160;6.990;2023-07-22T09:36:58;19.50;99.90
52621;DHT22;38515;53.160;6.990;2023-07-22T09:39:29;19.40;99.90
52621;DHT22;38515;53.160;6.990;2023-07-22T09:41:57;19.20;99.90
52621;DHT22;38515;53.160;6.990;2023-07-22T09:44:29;19.10;99.90
52621;DHT22;38515;53.160;6.990;2023-07-22T09:46:55;18.90;99.90
52621;DHT22;38515;53.160;6.990;2023-07-22T09:49:21;18.80;99.90
52621;DHT22;38515;53.160;6.990;2023-07-22T09:51:47;18.60;99.90
52621;DHT22;38515;53.160;6.990;2023-07-22T09:54:12;18.50;99.90
52621;DHT22;38515;53.160;6.990;2023-07-22T09:56:46;18.40;99.90
52621;DHT22;38515;53.160;6.990;2023-07-22T09:59:13;18.30;99.90
52621;DHT22;38515;53.160;6.990;2023-07-22T10:01:40;18.20;99.90
52621;DHT22;38515;53.160;6.990;2023-07-22T10:04:07;18.20;99.90
52621;DHT22;38515;53.160;6.990;2023-07-22T10:06:33;18.20;99.90
52621;DHT22;38515;53.160;6.990;2023-07-22T10:09:04;18.20;99.90
52621;DHT22;38515;53.160;6.990;2023-07-22T10:11:34;18.20;99.90
52621;DHT22;38515;53.160;6.990;2023-07-22T10:14:04;18.30;99.90
52621;DHT22;38515;53.160;6.990;2023-07-22T10:16:31;18.30;99.90
52621;DHT22;38515;53.160;6.990;2023-07-22T10:18:59;18.30;99.90
52621;DHT22;38515;53.160;6.990;2023-07-22T10:21:25;18.40;99.90
52621;DHT22;38515;53.160;6.990;2023-07-22T10:23:52;18.40;99.90
52621;DHT22;38515;53.160;6.990;2023-07-22T10:26:19;18.40;99.90
52621;DHT22;38515;53.160;6.990;2023-07-22T10:28:46;18.40;99.90
52621;DHT22;38515;53.160;6.990;2023-07-22T10:31:13;18.40;99.90
52621;DHT22;38515;53.160;6.990;2023-07-22T10:33:39;18.30;99.90
52621;DHT22;38515;53.160;6.990;2023-07-22T10:36:06;18.30;99.90
52621;DHT22;38515;53.160;6.990;2023-07-22T10:38:36;18.30;99.90
52621;DHT22;38515;53.160;6.990;2023-07-22T10:41:15;18.30;99.90
52621;DHT22;38515;53.160;6.990;2023-07-22T10:43:58;18.40;99.90
52621;DHT22;38515;53.160;6.990;2023-07-22T10:46:57;18.40;99.90
52621;DHT22;38515;53.160;6.990;2023-07-22T10:49:23;18.30;99.90
52621;DHT22;38515;53.160;6.990;2023-07-22T10:51:50;18.30;99.90
52621;DHT22;38515;53.160;6.990;2023-07-22T10:54:34;18.30;99.90
52621;DHT22;38515;53.160;6.990;2023-07-22T10:57:22;18.30;99.90
52621;DHT22;38515;53.160;6.990;2023-07-22T10:59:53;18.30;99.90
52621;DHT22;38515;53.160;6.990;2023-07-22T11:02:28;18.40;99.90
52621;DHT22;38515;53.160;6.990;2023-07-22T11:04:58;18.30;99.90
52621;DHT22;38515;53.160;6.990;2023-07-22T11:07:41;18.40;99.90
52621;DHT22;38515;53.160;6.990;2023-07-22T11:10:16;18.40;99.90
52621;DHT22;38515;53.160;6.990;2023-07-22T11:12:44;18.40;99.90
52621;DHT22;38515;53.160;6.990;2023-07-22T11:15:15;18.30;99.90
52621;DHT22;38515;53.160;6.990;2023-07-22T11:17:42;18.20;99.90
52621;DHT22;38515;53.160;6.990;2023-07-22T11:20:09;18.10;99.90
52621;DHT22;38515;53.160;6.990;2023-07-22T11:22:35;18.00;99.90
52621;DHT22;38515;53.160;6.990;2023-07-22T11:25:04;17.90;99.90
52621;DHT22;38515;53.160;6.990;2023-07-22T11:27:31;17.80;99.90
52621;DHT22;38515;53.160;6.990;2023-07-22T11:29:58;17.80;99.90
52621;DHT22;38515;53.160;6.990;2023-07-22T11:32:24;17.70;99.90
52621;DHT22;38515;53.160;6.990;2023-07-22T11:34:53;17.70;99.90
52621;DHT22;38515;53.160;6.990;2023-07-22T11:37:22;17.60;99.90
52621;DHT22;38515;53.160;6.990;2023-07-22T11:39:48;17.50;99.90
52621;DHT22;38515;53.160;6.990;2023-07-22T11:42:14;17.40;99.90
52621;DHT22;38515;53.160;6.990;2023-07-22T11:44:41;17.40;99.90
52621;DHT22;38515;53.160;6.990;2023-07-22T11:47:07;17.30;99.90
52621;DHT22;38515;53.160;6.990;2023-07-22T11:49:39;17.30;99.90
52621;DHT22;38515;53.160;6.990;2023-07-22T11:52:10;17.20;99.90
52621;DHT22;38515;53.160;6.990;2023-07-22T11:54:39;17.10;99.90
52621;DHT22;38515;53.160;6.990;2023-07-22T11:57:20;17.10;99.90
52621;DHT22;38515;53.160;6.990;2023-07-22T11:59:47;17.00;99.90
52621;DHT22;38515;53.160;6.990;2023-07-22T12:02:20;16.90;99.90
52621;DHT22;38515;53.160;6.990;2023-07-22T12:05:00;16.90;99.90
52621;DHT22;38515;53.160;6.990;2023-07-22T12:07:28;16.90;99.90
52621;DHT22;38515;53.160;6.990;2023-07-22T12:09:56;16.90;99.90
52621;DHT22;38515;53.160;6.990;2023-07-22T12:12:34;16.80;99.90
52621;DHT22;38515;53.160;6.990;2023-07-22T12:15:09;16.80;99.90
52621;DHT22;38515;53.160;6.990;2023-07-22T12:20:11;16.60;99.90
52621;DHT22;38515;53.160;6.990;2023-07-22T12:22:37;16.50;99.90
52621;DHT22;38515;53.160;6.990;2023-07-22T12:25:03;16.40;99.90
52621;DHT22;38515;53.160;6.990;2023-07-22T12:27:29;16.40;99.90
52621;DHT22;38515;53.160;6.990;2023-07-22T12:29:55;16.30;99.90
52621;DHT22;38515;53.160;6.990;2023-07-22T12:32:24;16.20;99.90
52621;DHT22;38515;53.160;6.990;2023-07-22T12:34:53;16.10;99.90
52621;DHT22;38515;53.160;6.990;2023-07-22T12:37:19;16.10;99.90
52621;DHT22;38515;53.160;6.990;2023-07-22T12:39:45;16.10;99.90
52621;DHT22;38515;53.160;6.990;2023-07-22T12:42:11;16.20;99.90
52621;DHT22;38515;53.160;6.990;2023-07-22T12:44:37;16.20;99.90
52621;DHT22;38515;53.160;6.990;2023-07-22T12:47:02;16.20;99.90
52621;DHT22;38515;53.160;6.990;2023-07-22T12:49:28;16.20;99.90
52621;DHT22;38515;53.160;6.990;2023-07-22T12:51:54;16.20;99.90
52621;DHT22;38515;53.160;6.990;2023-07-22T12:54:21;16.20;99.90
52621;DHT22;38515;53.160;6.990;2023-07-22T12:56:46;16.30;99.90
52621;DHT22;38515;53.160;6.990;2023-07-22T12:59:12;16.40;99.90
52621;DHT22;38515;53.160;6.990;2023-07-22T13:01:38;16.40;99.90
52621;DHT22;38515;53.160;6.990;2023-07-22T13:04:09;16.40;99.90
52621;DHT22;38515;53.160;6.990;2023-07-22T13:06:35;16.40;99.90
52621;DHT22;38515;53.160;6.990;2023-07-22T13:09:04;16.40;99.90
52621;DHT22;38515;53.160;6.990;2023-07-22T13:11:30;16.50;99.90
52621;DHT22;38515;53.160;6.990;2023-07-22T13:13:56;16.50;99.90
52621;DHT22;38515;53.160;6.990;2023-07-22T13:16:25;16.60;99.90
52621;DHT22;38515;53.160;6.990;2023-07-22T13:18:51;16.50;99.90
52621;DHT22;38515;53.160;6.990;2023-07-22T13:21:26;16.50;99.90
52621;DHT22;38515;53.160;6.990;2023-07-22T13:23:52;16.50;99.90
52621;DHT22;38515;53.160;6.990;2023-07-22T13:26:18;16.60;99.90
52621;DHT22;38515;53.160;6.990;2023-07-22T13:28:50;16.50;99.90
52621;DHT22;38515;53.160;6.990;2023-07-22T13:31:18;16.60;99.90
52621;DHT22;38515;53.160;6.990;2023-07-22T13:33:44;16.60;99.90
52621;DHT22;38515;53.160;6.990;2023-07-22T13:36:13;16.60;99.90
52621;DHT22;38515;53.160;6.990;2023-07-22T13:38:47;16.50;99.90
52621;DHT22;38515;53.160;6.990;2023-07-22T13:41:12;16.50;99.90
52621;DHT22;38515;53.160;6.990;2023-07-22T13:43:38;16.50;99.90
52621;DHT22;38515;53.160;6.990;2023-07-22T13:46:04;16.50;99.90
52621;DHT22;38515;53.160;6.990;2023-07-22T13:48:33;16.40;99.90
52621;DHT22;38515;53.160;6.990;2023-07-22T13:50:59;16.40;99.90
52621;DHT22;38515;53.160;6.990;2023-07-22T13:53:24;16.30;99.90
52621;DHT22;38515;53.160;6.990;2023-07-22T13:55:51;16.20;99.90
52621;DHT22;38515;53.160;6.990;2023-07-22T13:58:16;16.20;99.90
52621;DHT22;38515;53.160;6.990;2023-07-22T14:00:42;16.10;99.90
52621;DHT22;38515;53.160;6.990;2023-07-22T14:03:08;16.10;99.90
52621;DHT22;38515;53.160;6.990;2023-07-22T14:05:35;16.10;99.90
52621;DHT22;38515;53.160;6.990;2023-07-22T14:08:01;16.00;99.90
52621;DHT22;38515;53.160;6.990;2023-07-22T14:10:27;16.00;99.90
52621;DHT22;38515;53.160;6.990;2023-07-22T14:12:53;15.90;99.90
52621;DHT22;38515;53.160;6.990;2023-07-22T14:15:22;15.90;99.90
52621;DHT22;38515;53.160;6.990;2023-07-22T14:17:48;15.80;99.90
52621;DHT22;38515;53.160;6.990;2023-07-22T14:20:17;15.80;99.90
52621;DHT22;38515;53.160;6.990;2023-07-22T14:22:45;15.80;99.90
52621;DHT22;38515;53.160;6.990;2023-07-22T14:25:11;15.80;99.90
52621;DHT22;38515;53.160;6.990;2023-07-22T14:27:40;15.90;99.90
52621;DHT22;38515;53.160;6.990;2023-07-22T14:30:08;15.90;99.90
52621;DHT22;38515;53.160;6.990;2023-07-22T14:32:34;15.90;99.90
52621;DHT22;38515;53.160;6.990;2023-07-22T14:35:00;16.00;99.90
52621;DHT22;38515;53.160;6.990;2023-07-22T14:37:26;16.00;99.90
52621;DHT22;38515;53.160;6.990;2023-07-22T14:39:54;16.10;99.90
52621;DHT22;38515;53.160;6.990;2023-07-22T14:42:21;16.10;99.90
52621;DHT22;38515;53.160;6.990;2023-07-22T14:44:50;16.10;99.90
52621;DHT22;38515;53.160;6.990;2023-07-22T14:47:19;16.10;99.90
52621;DHT22;38515;53.160;6.990;2023-07-22T14:49:45;16.10;99.90
52621;DHT22;38515;53.160;6.990;2023-07-22T14:52:11;16.10;99.90
52621;DHT22;38515;53.160;6.990;2023-07-22T14:54:37;16.10;99.90
52621;DHT22;38515;53.160;6.990;2023-07-22T14:57:04;16.10;99.90
52621;DHT22;38515;53.160;6.990;2023-07-22T14:59:30;16.20;99.90
52621;DHT22;38515;53.160;6.990;2023-07-22T15:01:56;16.10;99.90
52621;DHT22;38515;53.160;6.990;2023-07-22T15:04:22;16.10;99.90
52621;DHT22;38515;53.160;6.990;2023-07-22T15:06:48;16.10;99.90
52621;DHT22;38515;53.160;6.990;2023-07-22T15:09:14;16.10;99.90
52621;DHT22;38515;53.160;6.990;2023-07-22T15:11:39;16.10;99.90
52621;DHT22;38515;53.160;6.990;2023-07-22T15:14:05;16.00;99.90
52621;DHT22;38515;53.160;6.990;2023-07-22T15:16:32;16.00;99.90
52621;DHT22;38515;53.160;6.990;2023-07-22T15:18:58;16.10;99.90
52621;DHT22;38515;53.160;6.990;2023-07-22T15:21:24;16.20;99.90
52621;DHT22;38515;53.160;6.990;2023-07-22T15:23:50;16.20;99.90
52621;DHT22;38515;53.160;6.990;2023-07-22T15:26:16;16.30;99.90
52621;DHT22;38515;53.160;6.990;2023-07-22T15:28:42;16.40;99.90
52621;DHT22;38515;53.160;6.990;2023-07-22T15:31:08;16.30;99.90
52621;DHT22;38515;53.160;6.990;2023-07-22T15:33:34;16.30;99.90
52621;DHT22;38515;53.160;6.990;2023-07-22T15:36:01;16.40;99.90